Time;durP1;ratioP1;P1;durP2;ratioP2;P2;SDS_P1;SDS_P2;PMS_P1;PMS_P2;Temp;Humidity;BMP_temperature;BMP_pressure;BME280_temperature;BME280_humidity;BME280_pressure;Samples;Min_cycle;Max_cycle;Signal;HPM_P1;HPM_P2
2021/07/12 00:01:22;;;;;;;5.10;4.60;;;18.50;91.60;;;;;;5091506;28;20020;-72
2021/07/12 00:03:48;;;;;;;5.07;4.55;;;18.40;91.60;;;;;;5091427;28;20465;-71
2021/07/12 00:06:13;;;;;;;4.90;4.40;;;18.40;91.70;;;;;;5090976;28;20016;-72
2021/07/12 00:08:39;;;;;;;4.85;4.30;;;18.40;91.80;;;;;;5091318;28;20020;-71
2021/07/12 00:11:04;;;;;;;5.22;4.55;;;18.40;91.90;;;;;;5091121;28;20020;-71
2021/07/12 00:13:30;;;;;;;4.57;4.15;;;18.30;92.00;;;;;;5089373;28;20389;-72
2021/07/12 00:15:55;;;;;;;5.28;4.78;;;18.20;92.10;;;;;;5090760;28;20020;-71
2021/07/12 00:18:21;;;;;;;3.90;3.20;;;18.10;92.30;;;;;;5091491;28;20039;-72
2021/07/12 00:20:47;;;;;;;2.05;1.85;;;18.00;92.50;;;;;;5090911;28;20020;-71
2021/07/12 00:23:12;;;;;;;1.60;1.30;;;18.00;92.60;;;;;;5091231;28;20419;-72
2021/07/12 00:25:38;;;;;;;1.23;1.10;;;17.90;92.70;;;;;;5091096;28;20435;-71
2021/07/12 00:28:04;;;;;;;3.15;1.85;;;17.90;92.80;;;;;;5091135;28;20070;-73
2021/07/12 00:30:29;;;;;;;2.00;1.80;;;17.90;92.80;;;;;;5094681;28;20028;-71
2021/07/12 00:32:58;;;;;;;3.17;2.88;;;18.00;92.80;;;;;;5094606;28;20393;-71
2021/07/12 00:35:25;;;;;;;4.10;3.67;;;17.90;92.80;;;;;;5094688;28;20461;-72
2021/07/12 00:37:52;;;;;;;3.97;3.58;;;17.90;92.80;;;;;;5094350;28;20044;-72
2021/07/12 00:40:19;;;;;;;4.75;4.20;;;18.00;92.90;;;;;;5091537;28;20016;-71
2021/07/12 00:42:45;;;;;;;5.50;4.38;;;18.00;93.00;;;;;;5093365;28;20024;-71
2021/07/12 00:45:35;;;;;;;5.78;4.80;;;18.00;93.00;;;;;;5093233;28;20074;-71
2021/07/12 00:48:01;;;;;;;6.88;5.55;;;18.00;93.10;;;;;;5091818;28;20016;-71
2021/07/12 00:50:29;;;;;;;3.88;3.45;;;18.00;93.10;;;;;;5094297;28;20028;-72
2021/07/12 00:52:56;;;;;;;4.10;3.70;;;17.90;93.20;;;;;;5089770;28;20016;-72
2021/07/12 00:55:45;;;;;;;4.22;3.83;;;17.90;93.30;;;;;;5094416;28;20480;-71
2021/07/12 00:58:13;;;;;;;4.25;3.90;;;17.90;93.30;;;;;;5093716;28;20024;-72
2021/07/12 01:00:41;;;;;;;4.68;4.22;;;17.70;93.50;;;;;;5094009;28;20025;-72
2021/07/12 01:03:08;;;;;;;5.18;4.63;;;17.70;93.60;;;;;;5094322;28;20027;-72
2021/07/12 01:05:35;;;;;;;4.95;4.45;;;17.70;93.70;;;;;;5092716;28;20020;-72
2021/07/12 01:08:01;;;;;;;4.68;4.10;;;17.70;93.70;;;;;;5092573;28;20047;-72
2021/07/12 01:10:27;;;;;;;4.93;4.35;;;17.70;93.70;;;;;;5092818;28;20496;-72
2021/07/12 01:13:23;;;;;;;4.72;4.32;;;17.70;93.80;;;;;;5092555;28;20016;-72
2021/07/12 01:15:58;;;;;;;5.43;4.47;;;17.70;93.80;;;;;;5092635;28;20027;-72
2021/07/12 01:18:28;;;;;;;5.43;4.93;;;17.60;93.90;;;;;;5090478;28;20434;-72
2021/07/12 01:21:24;;;;;;;6.47;5.38;;;17.60;94.00;;;;;;5092606;28;20489;-72
2021/07/12 01:24:11;;;;;;;6.57;5.18;;;17.60;94.00;;;;;;5089506;28;20075;-72
2021/07/12 01:26:56;;;;;;;6.45;5.10;;;17.50;94.10;;;;;;5093334;28;20103;-72
2021/07/12 01:29:36;;;;;;;5.88;5.28;;;17.50;94.10;;;;;;5089822;28;20032;-72
2021/07/12 01:32:17;;;;;;;5.80;5.22;;;17.50;94.20;;;;;;5091034;28;20524;-72
2021/07/12 01:35:04;;;;;;;6.63;5.53;;;17.40;94.30;;;;;;5093695;28;20027;-72
2021/07/12 01:37:55;;;;;;;6.13;5.47;;;17.40;94.30;;;;;;5093466;28;20040;-72
2021/07/12 01:40:33;;;;;;;6.47;5.75;;;17.40;94.30;;;;;;5089834;28;20473;-72
2021/07/12 01:43:07;;;;;;;6.72;6.13;;;17.40;94.40;;;;;;5093259;28;20072;-72
2021/07/12 01:45:43;;;;;;;7.25;5.75;;;17.30;94.50;;;;;;5093294;28;20027;-72
2021/07/12 01:48:14;;;;;;;7.32;5.95;;;17.30;94.60;;;;;;5091623;28;20023;-72
2021/07/12 01:50:55;;;;;;;6.60;5.65;;;17.30;94.70;;;;;;5091678;28;20023;-72
2021/07/12 01:53:42;;;;;;;5.68;5.10;;;17.20;94.80;;;;;;5088914;28;20012;-72
2021/07/12 01:56:30;;;;;;;6.05;4.60;;;17.20;94.80;;;;;;5093188;28;20042;-72
2021/07/12 01:59:13;;;;;;;4.43;4.03;;;17.20;94.80;;;;;;5093063;28;20016;-72
2021/07/12 02:01:40;;;;;;;4.32;3.92;;;17.10;94.90;;;;;;5091478;28;20020;-72
2021/07/12 02:04:07;;;;;;;6.57;3.63;;;17.10;94.90;;;;;;5091727;28;20016;-73
2021/07/12 02:06:39;;;;;;;2.97;2.67;;;17.10;95.20;;;;;;5092908;28;20024;-72
2021/07/12 02:09:08;;;;;;;3.95;3.55;;;17.10;95.00;;;;;;5089048;28;20024;-72
2021/07/12 02:11:37;;;;;;;4.30;3.90;;;17.00;95.10;;;;;;5089494;28;20020;-72
2021/07/12 02:14:04;;;;;;;3.33;2.95;;;17.00;95.20;;;;;;5090410;28;20016;-72
2021/07/12 02:16:30;;;;;;;3.45;3.15;;;16.90;95.20;;;;;;5089706;28;20028;-72
2021/07/12 02:18:57;;;;;;;3.53;3.22;;;17.00;95.30;;;;;;5092808;28;20070;-72
2021/07/12 02:21:23;;;;;;;3.85;3.45;;;17.00;95.30;;;;;;5092569;28;20073;-72
2021/07/12 02:23:50;;;;;;;3.92;3.53;;;16.90;95.50;;;;;;5092353;28;20016;-72
2021/07/12 02:26:16;;;;;;;4.90;4.22;;;16.90;95.30;;;;;;5092445;28;20691;-72
2021/07/12 02:28:44;;;;;;;3.92;3.35;;;16.90;95.40;;;;;;5089970;28;20493;-72
2021/07/12 02:31:15;;;;;;;5.28;4.40;;;16.90;95.40;;;;;;5092468;28;20031;-72
2021/07/12 02:33:42;;;;;;;5.43;4.93;;;16.90;95.50;;;;;;5092298;28;20077;-72
2021/07/12 02:36:07;;;;;;;5.35;4.82;;;16.80;95.60;;;;;;5092200;28;20052;-72
2021/07/12 02:38:36;;;;;;;5.85;5.25;;;16.80;95.60;;;;;;5090073;28;20579;-72
2021/07/12 02:41:02;;;;;;;5.97;4.85;;;16.80;95.70;;;;;;5089906;28;20512;-72
2021/07/12 02:43:28;;;;;;;5.97;4.72;;;16.70;95.70;;;;;;5092671;28;20519;-72
2021/07/12 02:45:55;;;;;;;6.35;5.75;;;16.70;95.80;;;;;;5092754;28;20481;-72
2021/07/12 02:48:21;;;;;;;6.50;5.55;;;16.70;95.90;;;;;;5092646;28;20050;-72
2021/07/12 02:50:51;;;;;;;5.72;5.20;;;16.70;95.90;;;;;;5092094;28;20020;-72
2021/07/12 02:53:27;;;;;;;7.07;6.15;;;16.70;95.90;;;;;;5075801;28;20450;-72
2021/07/12 02:55:53;;;;;;;6.40;5.80;;;16.70;96.00;;;;;;5072411;28;20534;-72
2021/07/12 02:58:18;;;;;;;7.68;6.90;;;16.60;96.10;;;;;;5071120;28;20020;-72
2021/07/12 03:00:44;;;;;;;7.93;7.13;;;16.60;96.10;;;;;;5071086;28;20071;-72
2021/07/12 03:03:09;;;;;;;7.95;7.15;;;16.60;96.20;;;;;;5070560;28;20070;-72
2021/07/12 03:05:35;;;;;;;8.32;7.53;;;16.60;96.20;;;;;;5072291;28;20036;-72
2021/07/12 03:08:22;;;;;;;7.50;6.65;;;16.70;96.30;;;;;;5071803;28;20448;-72
2021/07/12 03:10:55;;;;;;;6.32;5.35;;;16.60;96.20;;;;;;5090242;28;20111;-72
2021/07/12 03:13:48;;;;;;;6.30;5.70;;;16.60;96.30;;;;;;5092219;28;20020;-72
2021/07/12 03:16:15;;;;;;;7.05;6.13;;;16.50;96.60;;;;;;5088797;28;20438;-72
2021/07/12 03:18:46;;;;;;;6.28;5.68;;;16.50;96.50;;;;;;5070865;28;20380;-72
2021/07/12 03:21:12;;;;;;;5.38;4.57;;;16.40;96.50;;;;;;5072250;28;20054;-72
2021/07/12 03:23:43;;;;;;;4.97;4.47;;;16.40;96.60;;;;;;5071997;28;20056;-72
2021/07/12 03:26:11;;;;;;;5.93;5.32;;;16.40;96.60;;;;;;5071719;28;20024;-72
2021/07/12 03:28:38;;;;;;;6.65;4.88;;;16.40;96.70;;;;;;5070783;28;20029;-72
2021/07/12 03:31:07;;;;;;;5.35;4.35;;;16.40;96.70;;;;;;5071932;28;20112;-72
2021/07/12 03:33:35;;;;;;;4.43;3.83;;;16.40;96.80;;;;;;5072010;28;20070;-72
2021/07/12 03:36:01;;;;;;;5.93;4.25;;;16.40;96.80;;;;;;5071745;28;20017;-72
2021/07/12 03:38:27;;;;;;;5.22;4.68;;;16.40;96.80;;;;;;5070765;28;20031;-72
2021/07/12 03:40:53;;;;;;;5.15;4.63;;;16.40;96.80;;;;;;5071215;28;20386;-72
2021/07/12 03:43:19;;;;;;;6.47;5.75;;;16.40;96.90;;;;;;5080469;28;20035;-72
2021/07/12 03:45:59;;;;;;;7.32;6.63;;;16.30;96.90;;;;;;5090476;28;20020;-72
2021/07/12 03:48:36;;;;;;;7.38;6.30;;;16.40;96.90;;;;;;5089082;28;20031;-72
2021/07/12 03:51:04;;;;;;;8.45;7.55;;;16.40;97.00;;;;;;5089887;28;20048;-72
2021/07/12 03:53:32;;;;;;;7.50;6.70;;;16.30;97.00;;;;;;5091274;28;20012;-72
2021/07/12 03:55:58;;;;;;;7.95;7.15;;;16.30;97.10;;;;;;5091194;28;20032;-72
2021/07/12 03:58:23;;;;;;;6.25;5.65;;;16.30;97.10;;;;;;5091374;28;20073;-72
2021/07/12 04:00:49;;;;;;;5.82;5.03;;;16.30;97.10;;;;;;5090052;28;20104;-72
2021/07/12 04:03:14;;;;;;;5.70;5.10;;;16.30;97.10;;;;;;5093016;28;20028;-72
2021/07/12 04:05:40;;;;;;;6.60;5.63;;;16.30;97.20;;;;;;5093983;28;20107;-72
2021/07/12 04:08:05;;;;;;;6.53;5.88;;;16.30;97.20;;;;;;5095184;28;20024;-72
2021/07/12 04:10:31;;;;;;;6.90;6.20;;;16.30;97.20;;;;;;5094994;28;20027;-72
2021/07/12 04:12:57;;;;;;;8.77;7.90;;;16.30;97.20;;;;;;5095243;28;20028;-73
2021/07/12 04:15:23;;;;;;;8.77;7.78;;;16.30;97.20;;;;;;5092776;28;20016;-72
2021/07/12 04:17:48;;;;;;;10.55;8.73;;;16.40;97.20;;;;;;5095101;28;20043;-72
2021/07/12 04:20:15;;;;;;;8.70;7.80;;;16.40;97.20;;;;;;5093636;28;20024;-72
2021/07/12 04:22:41;;;;;;;9.35;8.02;;;16.40;97.20;;;;;;5094791;28;20032;-73
2021/07/12 04:25:08;;;;;;;8.50;7.45;;;16.40;97.20;;;;;;5094912;28;20028;-72
2021/07/12 04:27:34;;;;;;;6.75;5.75;;;16.40;97.20;;;;;;5093262;28;20380;-72
2021/07/12 04:29:59;;;;;;;5.05;4.55;;;16.40;97.20;;;;;;5093441;28;20031;-72
2021/07/12 04:32:25;;;;;;;5.57;3.38;;;16.40;97.20;;;;;;5093459;28;20053;-73
2021/07/12 04:34:50;;;;;;;4.15;3.75;;;16.30;97.60;;;;;;5094728;28;20024;-72
2021/07/12 04:37:16;;;;;;;3.83;3.45;;;16.30;97.40;;;;;;5094540;28;20047;-72
2021/07/12 04:39:42;;;;;;;3.72;3.35;;;16.40;97.40;;;;;;5093537;28;20023;-72
2021/07/12 04:42:07;;;;;;;6.45;4.40;;;16.40;97.40;;;;;;5093150;28;20476;-72
2021/07/12 04:44:33;;;;;;;5.72;5.13;;;16.40;97.40;;;;;;5092088;28;20081;-72
2021/07/12 04:47:00;;;;;;;7.03;6.32;;;16.50;97.40;;;;;;5094379;28;20028;-72
2021/07/12 04:49:26;;;;;;;7.50;6.70;;;16.50;97.40;;;;;;5093169;28;20679;-72
2021/07/12 04:51:52;;;;;;;6.85;6.15;;;16.60;97.40;;;;;;5094115;28;20481;-72
2021/07/12 04:54:18;;;;;;;7.55;6.70;;;16.60;97.40;;;;;;5093092;28;20068;-72
2021/07/12 04:56:43;;;;;;;8.13;6.88;;;16.60;97.50;;;;;;5094184;28;20020;-72
2021/07/12 04:59:10;;;;;;;8.40;7.10;;;16.70;97.50;;;;;;5091713;28;20020;-72
2021/07/12 05:01:37;;;;;;;7.68;6.90;;;16.70;97.50;;;;;;5093083;28;20035;-72
2021/07/12 05:04:06;;;;;;;8.30;7.28;;;16.80;97.60;;;;;;5094388;28;20031;-72
2021/07/12 05:06:32;;;;;;;7.70;6.90;;;16.80;97.60;;;;;;5094335;28;20027;-72
2021/07/12 05:08:58;;;;;;;8.48;7.60;;;16.80;97.60;;;;;;5092536;28;20035;-72
2021/07/12 05:11:25;;;;;;;8.95;8.05;;;16.90;97.60;;;;;;5093981;28;20024;-72
2021/07/12 05:13:51;;;;;;;9.93;8.93;;;16.90;97.50;;;;;;5093683;28;20135;-72
2021/07/12 05:16:17;;;;;;;9.68;8.68;;;17.00;97.50;;;;;;5093468;28;20027;-72
2021/07/12 05:18:43;;;;;;;10.32;9.20;;;17.00;97.50;;;;;;5093451;28;20024;-72
2021/07/12 05:21:09;;;;;;;11.30;10.15;;;17.10;97.60;;;;;;5095184;28;20099;-72
2021/07/12 05:23:36;;;;;;;12.95;11.68;;;17.10;97.60;;;;;;5093772;28;20069;-72
2021/07/12 05:26:02;;;;;;;16.02;14.02;;;17.20;97.70;;;;;;5094902;28;20023;-72
2021/07/12 05:28:27;;;;;;;17.23;15.43;;;17.20;97.70;;;;;;5093440;28;20116;-72
2021/07/12 05:30:53;;;;;;;16.85;14.85;;;17.20;97.80;;;;;;5094757;28;20070;-72
2021/07/12 05:33:18;;;;;;;20.20;18.00;;;17.30;97.90;;;;;;5094577;28;20032;-72
2021/07/12 05:35:44;;;;;;;20.38;18.27;;;17.30;98.00;;;;;;5093539;28;20111;-72
2021/07/12 05:38:09;;;;;;;18.75;16.83;;;17.30;98.20;;;;;;5094501;28;20040;-72
2021/07/12 05:40:36;;;;;;;17.95;16.13;;;17.40;98.30;;;;;;5094121;28;20042;-72
2021/07/12 05:43:02;;;;;;;19.10;16.92;;;17.40;98.40;;;;;;5093894;28;20023;-72
2021/07/12 05:45:28;;;;;;;18.75;16.75;;;17.50;98.50;;;;;;5092708;28;20370;-72
2021/07/12 05:47:53;;;;;;;18.40;16.50;;;17.60;98.60;;;;;;5094143;28;20030;-72
2021/07/12 05:50:20;;;;;;;17.42;15.63;;;17.60;98.70;;;;;;5094351;28;20028;-72
2021/07/12 05:52:46;;;;;;;18.95;16.00;;;17.60;98.70;;;;;;5094331;28;20016;-72
2021/07/12 05:55:12;;;;;;;15.95;14.18;;;17.70;98.80;;;;;;5094329;28;20046;-72
2021/07/12 05:57:37;;;;;;;18.60;16.67;;;17.80;98.90;;;;;;5094231;28;20077;-72
2021/07/12 06:00:06;;;;;;;15.93;14.23;;;17.80;98.90;;;;;;5092939;28;20035;-72
2021/07/12 06:02:32;;;;;;;15.88;14.18;;;17.90;99.00;;;;;;5092836;28;20024;-72
2021/07/12 06:04:57;;;;;;;18.10;16.17;;;17.90;99.00;;;;;;5092826;28;20397;-72
2021/07/12 06:07:23;;;;;;;19.48;17.48;;;18.00;99.10;;;;;;5094075;28;20035;-72
2021/07/12 06:09:49;;;;;;;20.02;17.90;;;18.00;99.20;;;;;;5092416;28;20031;-72
2021/07/12 06:12:14;;;;;;;19.55;17.52;;;18.10;99.20;;;;;;5094088;28;20026;-72
2021/07/12 06:14:40;;;;;;;18.88;16.98;;;18.20;99.20;;;;;;5093946;28;20388;-72
2021/07/12 06:17:06;;;;;;;20.17;17.75;;;18.30;99.20;;;;;;5093761;28;20040;-72
2021/07/12 06:19:31;;;;;;;20.10;18.00;;;18.30;99.10;;;;;;5093876;28;20020;-72
2021/07/12 06:21:57;;;;;;;18.75;16.77;;;18.40;99.20;;;;;;5086617;28;20024;-72
2021/07/12 06:24:22;;;;;;;15.32;13.20;;;18.40;99.00;;;;;;5085770;28;20024;-72
2021/07/12 06:26:48;;;;;;;19.15;16.77;;;18.50;99.00;;;;;;5072360;28;20044;-72
2021/07/12 06:29:13;;;;;;;15.05;13.45;;;18.50;98.90;;;;;;5072734;28;20074;-72
2021/07/12 06:31:39;;;;;;;14.40;12.95;;;18.60;98.80;;;;;;5072714;28;20020;-72
2021/07/12 06:34:05;;;;;;;15.15;13.68;;;18.70;98.80;;;;;;5072883;28;20024;-72
2021/07/12 06:36:30;;;;;;;14.70;13.15;;;18.70;98.70;;;;;;5072624;28;20051;-72
2021/07/12 06:38:56;;;;;;;12.23;11.02;;;18.80;98.70;;;;;;5072343;28;20063;-72
2021/07/12 06:41:21;;;;;;;14.65;13.18;;;18.90;98.60;;;;;;5089941;28;20024;-72
2021/07/12 06:43:47;;;;;;;13.93;12.52;;;19.00;98.60;;;;;;5091808;28;20031;-72
2021/07/12 06:46:14;;;;;;;17.67;15.95;;;19.00;98.50;;;;;;5092207;28;20031;-72
2021/07/12 06:48:39;;;;;;;17.80;15.90;;;19.10;98.40;;;;;;5091548;28;20058;-72
2021/07/12 06:51:05;;;;;;;17.08;15.38;;;19.20;98.20;;;;;;5092622;28;20105;-72
2021/07/12 06:53:30;;;;;;;18.48;16.58;;;19.20;97.90;;;;;;5092686;28;20012;-72
2021/07/12 06:55:56;;;;;;;17.83;15.48;;;19.20;97.70;;;;;;5093173;28;20027;-72
2021/07/12 06:58:21;;;;;;;17.10;15.32;;;19.30;97.60;;;;;;5089744;28;20496;-71
2021/07/12 07:00:47;;;;;;;16.73;14.88;;;19.40;97.10;;;;;;5076861;28;20056;-71
2021/07/12 07:03:12;;;;;;;19.30;16.02;;;19.40;96.90;;;;;;5072881;28;20460;-71
2021/07/12 07:05:38;;;;;;;17.50;15.00;;;19.50;96.50;;;;;;5072820;28;20098;-71
2021/07/12 07:08:04;;;;;;;17.15;13.10;;;19.60;96.30;;;;;;5072944;28;20119;-72
2021/07/12 07:10:30;;;;;;;13.23;11.82;;;19.70;96.30;;;;;;5072764;28;20051;-73
2021/07/12 07:12:55;;;;;;;13.63;11.25;;;19.70;96.20;;;;;;5092281;28;20055;-73
2021/07/12 07:15:21;;;;;;;13.32;10.82;;;19.80;96.20;;;;;;5077531;28;20078;-73
2021/07/12 07:17:46;;;;;;;13.82;11.93;;;19.90;96.20;;;;;;5090009;28;20039;-72
2021/07/12 07:20:12;;;;;;;12.52;10.88;;;20.00;95.80;;;;;;5092628;28;20495;-72
2021/07/12 07:22:38;;;;;;;12.10;9.70;;;20.10;95.20;;;;;;5092699;28;20032;-71
2021/07/12 07:25:05;;;;;;;10.65;9.38;;;20.20;94.90;;;;;;5092837;28;20034;-71
2021/07/12 07:27:32;;;;;;;8.90;7.75;;;20.30;94.40;;;;;;5091826;28;20046;-72
2021/07/12 07:29:57;;;;;;;8.38;7.30;;;20.30;94.40;;;;;;5092387;28;20073;-72
2021/07/12 07:32:23;;;;;;;11.38;8.30;;;20.40;94.30;;;;;;5091666;28;20028;-72
2021/07/12 07:34:49;;;;;;;8.50;6.60;;;20.50;94.10;;;;;;5091361;28;20020;-72
2021/07/12 07:37:14;;;;;;;8.43;6.40;;;20.60;94.00;;;;;;5088220;28;20044;-72
2021/07/12 07:39:41;;;;;;;8.32;6.60;;;20.70;94.00;;;;;;5086982;28;20035;-72
2021/07/12 07:42:07;;;;;;;10.02;8.27;;;20.80;93.90;;;;;;5094585;28;20122;-71
2021/07/12 07:44:33;;;;;;;12.90;9.90;;;20.90;94.00;;;;;;5089299;28;20107;-72
2021/07/12 07:46:59;;;;;;;11.05;9.93;;;21.00;93.30;;;;;;5095412;28;20028;-72
2021/07/12 07:49:24;;;;;;;10.18;8.52;;;21.00;92.70;;;;;;5096642;28;20058;-71
2021/07/12 07:51:50;;;;;;;11.23;8.98;;;21.10;92.40;;;;;;5092884;28;20029;-71
2021/07/12 07:54:16;;;;;;;9.68;7.45;;;21.20;92.20;;;;;;5096729;28;20028;-72
2021/07/12 07:56:42;;;;;;;9.88;7.15;;;21.30;92.10;;;;;;5095210;28;20382;-71
2021/07/12 07:59:08;;;;;;;8.73;7.82;;;21.40;92.10;;;;;;5096352;28;20032;-72
2021/07/12 08:01:34;;;;;;;6.30;5.57;;;21.40;91.70;;;;;;5095063;28;20052;-71
2021/07/12 08:04:00;;;;;;;7.22;6.47;;;21.50;91.80;;;;;;5095299;28;20507;-72
2021/07/12 08:06:26;;;;;;;9.35;7.25;;;21.60;91.20;;;;;;5096341;28;20032;-72
2021/07/12 08:08:51;;;;;;;9.30;6.65;;;21.70;91.00;;;;;;5096321;28;20435;-72
2021/07/12 08:11:17;;;;;;;6.20;5.10;;;21.80;91.50;;;;;;5094904;28;20020;-72
2021/07/12 08:13:43;;;;;;;3.97;3.40;;;21.90;90.50;;;;;;5096104;28;20099;-72
2021/07/12 08:16:09;;;;;;;3.85;3.35;;;21.90;90.00;;;;;;5096040;28;20024;-72
2021/07/12 08:18:35;;;;;;;3.50;3.20;;;22.00;90.60;;;;;;5094917;28;20031;-72
2021/07/12 08:21:01;;;;;;;3.13;2.40;;;22.10;90.10;;;;;;5094261;28;20024;-72
2021/07/12 08:23:26;;;;;;;4.28;2.95;;;22.10;89.30;;;;;;5095364;28;20028;-72
2021/07/12 08:25:52;;;;;;;4.30;3.08;;;22.10;88.00;;;;;;5095130;28;20024;-72
2021/07/12 08:28:18;;;;;;;3.33;1.80;;;22.20;87.00;;;;;;5094611;28;20036;-72
2021/07/12 08:30:45;;;;;;;2.38;2.00;;;22.20;85.40;;;;;;5095713;28;20032;-73
2021/07/12 08:33:11;;;;;;;1.83;1.58;;;22.30;87.20;;;;;;5095685;28;20477;-72
2021/07/12 08:35:37;;;;;;;2.65;1.90;;;22.30;85.70;;;;;;5094640;28;20027;-72
2021/07/12 08:38:04;;;;;;;3.70;2.13;;;22.40;85.30;;;;;;5094425;28;20041;-73
2021/07/12 08:40:30;;;;;;;3.78;2.20;;;22.40;84.30;;;;;;5095590;28;20396;-72
2021/07/12 08:42:57;;;;;;;2.03;1.70;;;22.50;84.70;;;;;;5094410;28;20028;-72
2021/07/12 08:45:24;;;;;;;5.82;2.85;;;22.60;85.00;;;;;;5095616;28;20028;-72
2021/07/12 08:47:50;;;;;;;3.35;2.70;;;22.70;85.70;;;;;;5094201;28;20039;-73
2021/07/12 08:50:16;;;;;;;6.07;2.97;;;22.70;85.00;;;;;;5094791;28;20036;-73
2021/07/12 08:52:43;;;;;;;4.10;3.13;;;22.80;83.60;;;;;;5084243;28;20025;-73
2021/07/12 08:55:09;;;;;;;5.90;4.10;;;22.80;84.20;;;;;;5073904;28;20028;-73
2021/07/12 08:57:35;;;;;;;4.97;3.80;;;22.90;84.40;;;;;;5074984;28;20028;-73
2021/07/12 09:00:00;;;;;;;3.20;2.83;;;22.90;84.50;;;;;;5075034;28;20021;-73
2021/07/12 09:02:26;;;;;;;3.92;3.22;;;23.00;84.60;;;;;;5074881;28;20016;-73
2021/07/12 09:04:53;;;;;;;2.47;2.20;;;23.10;85.10;;;;;;5075073;28;20099;-73
2021/07/12 09:07:22;;;;;;;4.25;2.55;;;23.20;85.10;;;;;;5075124;28;20029;-74
2021/07/12 09:10:09;;;;;;;2.58;2.35;;;23.30;81.50;;;;;;5087593;28;20442;-73
2021/07/12 09:12:48;;;;;;;2.20;1.88;;;23.30;82.00;;;;;;5093857;28;20058;-73
2021/07/12 09:15:15;;;;;;;3.40;2.47;;;23.40;82.20;;;;;;5093810;28;20489;-73
2021/07/12 09:17:47;;;;;;;3.55;2.03;;;23.50;82.50;;;;;;5093608;28;20032;-74
2021/07/12 09:20:25;;;;;;;3.35;2.80;;;23.60;80.30;;;;;;5094803;28;20032;-74
2021/07/12 09:22:50;;;;;;;3.40;3.10;;;23.60;80.00;;;;;;5094872;28;20477;-74
2021/07/12 09:25:16;;;;;;;2.85;2.50;;;23.50;80.80;;;;;;5093637;28;20035;-74
2021/07/12 09:27:42;;;;;;;3.88;2.55;;;23.50;81.10;;;;;;5093575;28;20504;-74
2021/07/12 09:30:13;;;;;;;3.28;2.80;;;23.60;81.10;;;;;;5094614;28;20028;-72
2021/07/12 09:32:44;;;;;;;2.72;2.38;;;23.60;80.40;;;;;;5092672;28;20444;-73
2021/07/12 09:35:14;;;;;;;2.85;2.13;;;23.70;80.70;;;;;;5087416;28;20028;-72
2021/07/12 09:37:42;;;;;;;2.03;1.83;;;23.80;80.70;;;;;;5081956;28;20582;-72
2021/07/12 09:40:12;;;;;;;2.38;1.90;;;23.90;80.20;;;;;;5074197;28;20069;-73
2021/07/12 09:42:41;;;;;;;2.50;2.30;;;24.00;79.70;;;;;;5074307;28;20085;-74
2021/07/12 09:45:10;;;;;;;2.55;2.10;;;24.00;79.20;;;;;;5085004;28;20016;-74
2021/07/12 09:47:38;;;;;;;3.00;2.70;;;24.10;78.50;;;;;;5094047;28;20058;-74
2021/07/12 09:50:09;;;;;;;3.22;2.90;;;24.10;76.90;;;;;;5093093;28;20024;-75
2021/07/12 09:52:49;;;;;;;2.20;1.90;;;24.00;76.60;;;;;;5090561;28;20020;-75
2021/07/12 09:55:23;;;;;;;;;;;24.10;77.30;;;;;;5074243;28;20032;-74
2021/07/12 09:58:08;;;;;;;3.72;2.85;;;24.20;77.80;;;;;;5072409;28;19937;-74
2021/07/12 10:00:35;;;;;;;2.63;2.42;;;24.30;75.90;;;;;;5071483;28;20103;-73
2021/07/12 10:03:01;;;;;;;3.25;2.67;;;24.30;75.40;;;;;;5073578;28;20032;-73
2021/07/12 10:05:27;;;;;;;5.38;2.25;;;24.40;74.50;;;;;;5073560;28;20033;-73
2021/07/12 10:07:53;;;;;;;3.97;2.65;;;24.50;74.90;;;;;;5072344;28;20081;-73
2021/07/12 10:10:18;;;;;;;3.85;2.20;;;24.60;75.00;;;;;;5073288;28;20470;-74
2021/07/12 10:12:45;;;;;;;3.30;2.78;;;24.70;74.00;;;;;;5073465;28;20035;-74
2021/07/12 10:15:12;;;;;;;2.40;2.20;;;24.70;73.90;;;;;;5073343;28;20554;-74
2021/07/12 10:17:43;;;;;;;3.25;2.70;;;24.70;74.10;;;;;;5071843;28;20477;-74
2021/07/12 10:20:09;;;;;;;3.58;2.13;;;24.80;73.60;;;;;;5072987;28;20025;-74
2021/07/12 10:22:36;;;;;;;2.47;2.28;;;24.80;73.20;;;;;;5072025;28;20149;-73
2021/07/12 10:25:12;;;;;;;3.08;2.67;;;24.90;74.30;;;;;;5082690;28;20464;-75
2021/07/12 10:27:54;;;;;;;2.40;2.17;;;25.10;73.00;;;;;;5089975;28;20020;-74
2021/07/12 10:30:49;;;;;;;2.60;2.10;;;25.20;73.10;;;;;;5075868;28;20036;-75
2021/07/12 10:33:17;;;;;;;2.67;2.42;;;25.50;72.70;;;;;;5068106;28;20037;-75
2021/07/12 10:35:47;;;;;;;2.80;2.05;;;25.50;71.30;;;;;;5072941;28;20024;-74
2021/07/12 10:38:19;;;;;;;2.45;1.95;;;25.70;70.90;;;;;;5078498;28;20052;-74
2021/07/12 10:40:55;;;;;;;2.50;2.30;;;25.90;71.50;;;;;;5092962;28;20107;-73
2021/07/12 10:43:34;;;;;;;2.22;2.03;;;26.10;70.80;;;;;;5091835;28;20027;-74
2021/07/12 10:46:00;;;;;;;2.33;2.00;;;26.20;70.20;;;;;;5091819;28;20035;-74
2021/07/12 10:48:34;;;;;;;3.72;2.47;;;26.30;70.30;;;;;;5092801;28;20040;-74
2021/07/12 10:51:18;;;;;;;2.00;1.60;;;26.40;69.30;;;;;;5091036;28;20060;-73
2021/07/12 10:53:57;;;;;;;2.30;2.10;;;26.70;69.20;;;;;;5079106;28;20016;-74
2021/07/12 10:56:39;;;;;;;3.20;2.90;;;26.80;68.80;;;;;;5088201;28;20533;-75
2021/07/12 10:59:05;;;;;;;3.10;2.63;;;26.90;68.80;;;;;;5073481;28;20032;-74
2021/07/12 11:01:41;;;;;;;2.65;2.30;;;26.80;68.20;;;;;;5079579;28;20389;-73
2021/07/12 11:04:34;;;;;;;1.98;1.88;;;26.80;66.80;;;;;;5095155;28;20024;-74
2021/07/12 11:07:01;;;;;;;2.10;1.90;;;27.00;66.80;;;;;;5082643;28;20028;-73
2021/07/12 11:09:47;;;;;;;2.10;1.90;;;26.90;66.00;;;;;;5083510;28;20043;-74
2021/07/12 11:12:50;;;;;;;2.40;2.08;;;27.20;66.50;;;;;;5075591;28;20027;-74
2021/07/12 11:15:24;;;;;;;2.47;2.20;;;27.50;66.40;;;;;;5077923;28;20024;-74
2021/07/12 11:17:55;;;;;;;2.72;1.90;;;27.60;65.80;;;;;;5083044;28;20028;-74
2021/07/12 11:20:51;;;;;;;2.45;2.25;;;27.70;66.00;;;;;;5083521;28;20040;-74
2021/07/12 11:23:39;;;;;;;8.57;3.03;;;27.80;65.00;;;;;;5083321;28;20016;-74
2021/07/12 11:26:32;;;;;;;3.72;3.30;;;27.90;65.20;;;;;;5083034;28;20086;-74
2021/07/12 11:29:00;;;;;;;5.10;3.60;;;28.00;65.30;;;;;;5081241;28;20035;-74
2021/07/12 11:31:44;;;;;;;3.25;2.67;;;28.00;65.60;;;;;;5078053;28;20031;-74
2021/07/12 11:34:17;;;;;;;2.60;2.40;;;28.00;65.50;;;;;;5089712;28;20038;-74
2021/07/12 11:37:09;;;;;;;3.25;2.95;;;28.10;66.10;;;;;;5091642;28;20496;-74
2021/07/12 11:39:51;;;;;;;2.88;2.67;;;28.00;65.40;;;;;;5091511;28;20036;-74
2021/07/12 11:42:39;;;;;;;2.72;2.33;;;27.90;66.50;;;;;;5082973;28;20103;-74
2021/07/12 11:45:08;;;;;;;2.35;2.15;;;27.90;65.90;;;;;;5070309;28;20032;-73
2021/07/12 11:47:38;;;;;;;;;;;28.10;66.20;;;;;;5070797;28;20024;-74
2021/07/12 11:50:10;;;;;;;2.22;2.03;;;28.30;66.10;;;;;;5082340;28;19912;-75
2021/07/12 11:52:37;;;;;;;2.30;2.10;;;28.40;65.20;;;;;;5091233;28;20032;-75
2021/07/12 11:55:08;;;;;;;3.08;2.15;;;28.50;64.40;;;;;;5090815;28;20027;-76
2021/07/12 11:57:36;;;;;;;2.47;1.75;;;28.40;62.40;;;;;;5090995;28;20020;-76
2021/07/12 12:00:04;;;;;;;2.35;2.15;;;28.40;62.50;;;;;;5092041;28;20532;-75
2021/07/12 12:02:29;;;;;;;2.58;2.38;;;28.20;62.80;;;;;;5091787;28;20059;-75
2021/07/12 12:04:58;;;;;;;2.10;1.85;;;28.20;63.00;;;;;;5091925;28;20433;-75
2021/07/12 12:07:40;;;;;;;2.17;1.90;;;28.30;63.10;;;;;;5090797;28;20024;-76
2021/07/12 12:10:13;;;;;;;2.20;2.00;;;28.40;63.20;;;;;;5090737;28;20059;-76
2021/07/12 12:12:50;;;;;;;4.15;2.22;;;28.40;63.00;;;;;;5090980;28;20044;-75
2021/07/12 12:15:21;;;;;;;2.50;2.30;;;28.40;62.70;;;;;;5091697;28;20024;-75
2021/07/12 12:18:02;;;;;;;2.85;2.45;;;28.40;62.90;;;;;;5090348;28;20073;-75
2021/07/12 12:20:33;;;;;;;3.10;2.80;;;28.20;62.60;;;;;;5091940;28;20115;-76
2021/07/12 12:23:10;;;;;;;3.80;2.38;;;27.90;62.30;;;;;;5090230;28;20028;-75
2021/07/12 12:25:42;;;;;;;2.35;2.15;;;27.70;62.50;;;;;;5094465;28;20048;-75
2021/07/12 12:28:09;;;;;;;2.38;2.10;;;27.70;62.70;;;;;;5094109;28;20035;-76
2021/07/12 12:30:36;;;;;;;3.85;2.90;;;27.70;62.90;;;;;;5095353;28;20365;-76
2021/07/12 12:33:02;;;;;;;2.85;2.30;;;27.80;62.40;;;;;;5094150;28;20054;-76
2021/07/12 12:35:31;;;;;;;2.35;2.05;;;27.80;62.90;;;;;;5093918;28;20043;-76
2021/07/12 12:38:15;;;;;;;2.63;2.20;;;27.90;63.10;;;;;;5093896;28;20044;-75
2021/07/12 12:40:41;;;;;;;2.38;2.00;;;27.90;62.70;;;;;;5095152;28;20028;-74
2021/07/12 12:43:14;;;;;;;2.60;2.20;;;28.00;62.80;;;;;;5095185;28;20024;-74
2021/07/12 12:45:49;;;;;;;2.30;1.98;;;28.10;62.70;;;;;;5095245;28;20028;-74
2021/07/12 12:48:36;;;;;;;2.88;1.70;;;28.30;62.80;;;;;;5095039;28;20032;-74
2021/07/12 12:51:22;;;;;;;2.00;1.77;;;28.30;62.60;;;;;;5093144;28;20077;-74
2021/07/12 12:54:02;;;;;;;2.65;2.20;;;28.30;62.40;;;;;;5091565;28;20027;-74
2021/07/12 12:56:28;;;;;;;2.33;2.03;;;28.20;62.40;;;;;;5094633;28;20016;-74